sensor_id;sensor_type;location;lat;lon;timestamp;P1;durP1;ratioP1;P2;durP2;ratioP2
12222;SDS011;6174;49.058;8.524;2024-03-08T11:46:47;13.17;;;11.87;;
12222;SDS011;6174;49.058;8.524;2024-03-08T11:49:32;12.60;;;11.40;;
12222;SDS011;6174;49.058;8.524;2024-03-08T11:52:15;13.40;;;12.00;;
12222;SDS011;6174;49.058;8.524;2024-03-08T11:55:09;12.97;;;11.67;;
12222;SDS011;6174;49.058;8.524;2024-03-08T11:57:45;12.83;;;11.57;;
12222;SDS011;6174;49.058;8.524;2024-03-08T12:00:20;13.73;;;12.00;;
12222;SDS011;6174;49.058;8.524;2024-03-08T12:03:05;13.97;;;11.73;;
12222;SDS011;6174;49.058;8.524;2024-03-08T12:05:40;14.07;;;12.23;;
12222;SDS011;6174;49.058;8.524;2024-03-08T12:08:13;13.13;;;11.83;;
12222;SDS011;6174;49.058;8.524;2024-03-08T12:10:49;12.83;;;11.63;;
12222;SDS011;6174;49.058;8.524;2024-03-08T12:13:20;13.40;;;12.00;;
12222;SDS011;6174;49.058;8.524;2024-03-08T12:15:53;12.60;;;11.10;;
12222;SDS011;6174;49.058;8.524;2024-03-08T12:18:25;12.20;;;11.00;;
12222;SDS011;6174;49.058;8.524;2024-03-08T12:21:03;13.07;;;11.77;;
12222;SDS011;6174;49.058;8.524;2024-03-08T12:23:33;17.60;;;11.73;;
12222;SDS011;6174;49.058;8.524;2024-03-08T12:26:11;13.57;;;12.27;;
12222;SDS011;6174;49.058;8.524;2024-03-08T12:28:42;14.40;;;12.90;;
12222;SDS011;6174;49.058;8.524;2024-03-08T12:54:41;13.00;;;11.60;;
12222;SDS011;6174;49.058;8.524;2024-03-08T12:57:14;12.73;;;10.93;;
12222;SDS011;6174;49.058;8.524;2024-03-08T12:59:45;12.70;;;11.50;;
12222;SDS011;6174;49.058;8.524;2024-03-08T13:02:22;13.23;;;11.63;;
12222;SDS011;6174;49.058;8.524;2024-03-08T13:06:09;12.53;;;11.27;;
12222;SDS011;6174;49.058;8.524;2024-03-08T13:20:30;12.87;;;11.57;;
12222;SDS011;6174;49.058;8.524;2024-03-08T13:23:30;13.80;;;12.40;;
12222;SDS011;6174;49.058;8.524;2024-03-08T13:26:02;13.60;;;12.20;;
12222;SDS011;6174;49.058;8.524;2024-03-08T13:28:51;13.10;;;11.73;;
12222;SDS011;6174;49.058;8.524;2024-03-08T13:31:27;12.90;;;11.70;;
12222;SDS011;6174;49.058;8.524;2024-03-08T13:34:03;13.53;;;12.13;;
12222;SDS011;6174;49.058;8.524;2024-03-08T13:37:50;13.83;;;12.23;;
12222;SDS011;6174;49.058;8.524;2024-03-08T13:41:02;14.67;;;13.20;;
12222;SDS011;6174;49.058;8.524;2024-03-08T13:44:00;13.83;;;12.43;;
12222;SDS011;6174;49.058;8.524;2024-03-08T13:46:36;13.60;;;12.23;;
12222;SDS011;6174;49.058;8.524;2024-03-08T13:49:17;14.73;;;13.30;;
12222;SDS011;6174;49.058;8.524;2024-03-08T13:52:01;14.37;;;12.93;;
12222;SDS011;6174;49.058;8.524;2024-03-08T13:55:09;13.93;;;12.53;;
12222;SDS011;6174;49.058;8.524;2024-03-08T13:58:27;13.53;;;12.20;;
12222;SDS011;6174;49.058;8.524;2024-03-08T14:07:25;13.93;;;12.53;;
12222;SDS011;6174;49.058;8.524;2024-03-08T14:10:00;13.30;;;11.70;;
12222;SDS011;6174;49.058;8.524;2024-03-08T14:12:38;14.30;;;12.80;;
12222;SDS011;6174;49.058;8.524;2024-03-08T14:15:13;14.67;;;13.13;;
12222;SDS011;6174;49.058;8.524;2024-03-08T14:17:54;13.90;;;12.50;;
12222;SDS011;6174;49.058;8.524;2024-03-08T14:20:23;14.23;;;12.83;;
12222;SDS011;6174;49.058;8.524;2024-03-08T14:22:56;14.10;;;12.70;;
12222;SDS011;6174;49.058;8.524;2024-03-08T14:25:23;15.13;;;13.63;;
12222;SDS011;6174;49.058;8.524;2024-03-08T14:27:59;14.07;;;12.67;;
12222;SDS011;6174;49.058;8.524;2024-03-08T14:30:32;14.80;;;13.27;;
12222;SDS011;6174;49.058;8.524;2024-03-08T14:33:04;14.77;;;13.17;;
12222;SDS011;6174;49.058;8.524;2024-03-08T14:35:34;16.50;;;13.33;;
12222;SDS011;6174;49.058;8.524;2024-03-08T14:38:02;14.30;;;12.80;;
12222;SDS011;6174;49.058;8.524;2024-03-08T14:40:40;14.43;;;12.93;;
12222;SDS011;6174;49.058;8.524;2024-03-08T14:49:59;16.13;;;13.23;;
12222;SDS011;6174;49.058;8.524;2024-03-08T14:56:09;14.10;;;12.60;;
12222;SDS011;6174;49.058;8.524;2024-03-08T16:24:05;14.17;;;12.67;;
12222;SDS011;6174;49.058;8.524;2024-03-08T16:29:42;13.17;;;11.70;;
12222;SDS011;6174;49.058;8.524;2024-03-08T16:32:26;13.47;;;12.07;;
12222;SDS011;6174;49.058;8.524;2024-03-08T16:35:39;15.90;;;12.83;;
12222;SDS011;6174;49.058;8.524;2024-03-08T16:38:49;15.00;;;12.60;;
12222;SDS011;6174;49.058;8.524;2024-03-08T16:41:51;13.87;;;12.47;;
12222;SDS011;6174;49.058;8.524;2024-03-08T16:44:23;14.30;;;12.73;;
12222;SDS011;6174;49.058;8.524;2024-03-08T16:50:08;14.07;;;12.47;;
12222;SDS011;6174;49.058;8.524;2024-03-08T16:53:04;15.17;;;13.53;;
12222;SDS011;6174;49.058;8.524;2024-03-08T16:55:46;15.30;;;13.70;;
12222;SDS011;6174;49.058;8.524;2024-03-08T17:10:23;14.80;;;13.23;;
12222;SDS011;6174;49.058;8.524;2024-03-08T17:44:50;17.30;;;14.63;;
12222;SDS011;6174;49.058;8.524;2024-03-08T17:45:32;15.43;;;13.60;;
12222;SDS011;6174;49.058;8.524;2024-03-08T19:05:28;31.27;;;24.93;;
12222;SDS011;6174;49.058;8.524;2024-03-08T19:07:57;30.67;;;24.83;;
12222;SDS011;6174;49.058;8.524;2024-03-08T19:10:27;26.57;;;22.30;;
12222;SDS011;6174;49.058;8.524;2024-03-08T19:12:55;25.60;;;20.97;;
12222;SDS011;6174;49.058;8.524;2024-03-08T19:15:24;27.93;;;23.47;;
12222;SDS011;6174;49.058;8.524;2024-03-08T19:17:51;30.93;;;26.77;;
12222;SDS011;6174;49.058;8.524;2024-03-08T19:20:19;29.50;;;24.33;;
12222;SDS011;6174;49.058;8.524;2024-03-08T19:22:50;23.93;;;21.43;;
12222;SDS011;6174;49.058;8.524;2024-03-08T19:25:19;22.87;;;20.30;;
12222;SDS011;6174;49.058;8.524;2024-03-08T19:27:47;21.20;;;18.83;;
12222;SDS011;6174;49.058;8.524;2024-03-08T19:30:15;26.97;;;21.70;;
12222;SDS011;6174;49.058;8.524;2024-03-08T19:32:45;25.30;;;22.17;;
12222;SDS011;6174;49.058;8.524;2024-03-08T19:35:12;24.40;;;21.27;;
12222;SDS011;6174;49.058;8.524;2024-03-08T19:37:43;21.83;;;19.43;;
12222;SDS011;6174;49.058;8.524;2024-03-08T19:40:13;22.73;;;19.33;;
12222;SDS011;6174;49.058;8.524;2024-03-08T19:42:44;26.60;;;21.50;;
12222;SDS011;6174;49.058;8.524;2024-03-08T19:45:11;25.37;;;21.37;;
12222;SDS011;6174;49.058;8.524;2024-03-08T19:47:39;24.90;;;20.60;;
12222;SDS011;6174;49.058;8.524;2024-03-08T19:50:08;27.40;;;22.50;;
12222;SDS011;6174;49.058;8.524;2024-03-08T19:52:39;28.77;;;22.63;;
12222;SDS011;6174;49.058;8.524;2024-03-08T19:55:17;25.70;;;21.23;;
12222;SDS011;6174;49.058;8.524;2024-03-08T20:00:22;19.33;;;17.23;;
12222;SDS011;6174;49.058;8.524;2024-03-08T20:02:51;18.47;;;16.57;;
12222;SDS011;6174;49.058;8.524;2024-03-08T20:05:20;18.43;;;15.70;;
12222;SDS011;6174;49.058;8.524;2024-03-08T20:07:49;17.20;;;15.40;;
12222;SDS011;6174;49.058;8.524;2024-03-08T20:10:21;18.07;;;15.00;;
12222;SDS011;6174;49.058;8.524;2024-03-08T20:12:49;15.77;;;14.17;;
12222;SDS011;6174;49.058;8.524;2024-03-08T20:15:17;17.57;;;15.87;;
12222;SDS011;6174;49.058;8.524;2024-03-08T20:17:50;16.60;;;14.90;;
12222;SDS011;6174;49.058;8.524;2024-03-08T20:20:18;14.50;;;12.67;;
12222;SDS011;6174;49.058;8.524;2024-03-08T20:22:47;14.13;;;12.63;;
12222;SDS011;6174;49.058;8.524;2024-03-08T20:25:15;14.50;;;12.50;;
12222;SDS011;6174;49.058;8.524;2024-03-08T20:27:49;13.30;;;12.00;;
12222;SDS011;6174;49.058;8.524;2024-03-08T20:30:17;12.77;;;11.47;;
12222;SDS011;6174;49.058;8.524;2024-03-08T20:32:47;13.80;;;12.00;;
12222;SDS011;6174;49.058;8.524;2024-03-08T20:35:14;11.43;;;10.33;;
12222;SDS011;6174;49.058;8.524;2024-03-08T20:37:45;13.10;;;11.70;;
12222;SDS011;6174;49.058;8.524;2024-03-08T20:40:13;12.03;;;10.83;;
12222;SDS011;6174;49.058;8.524;2024-03-08T20:42:39;12.10;;;10.90;;
12222;SDS011;6174;49.058;8.524;2024-03-08T20:45:08;11.97;;;10.77;;
12222;SDS011;6174;49.058;8.524;2024-03-08T20:47:35;15.70;;;13.30;;
12222;SDS011;6174;49.058;8.524;2024-03-08T20:50:07;17.70;;;15.37;;
12222;SDS011;6174;49.058;8.524;2024-03-08T20:52:38;13.23;;;11.83;;
12222;SDS011;6174;49.058;8.524;2024-03-08T20:55:06;14.23;;;12.73;;
12222;SDS011;6174;49.058;8.524;2024-03-08T20:57:37;15.23;;;13.63;;
12222;SDS011;6174;49.058;8.524;2024-03-08T21:00:05;18.47;;;15.90;;
12222;SDS011;6174;49.058;8.524;2024-03-08T21:02:43;13.43;;;12.03;;
12222;SDS011;6174;49.058;8.524;2024-03-08T21:05:11;17.37;;;15.57;;
12222;SDS011;6174;49.058;8.524;2024-03-08T21:07:37;14.87;;;13.37;;
12222;SDS011;6174;49.058;8.524;2024-03-08T21:10:04;12.23;;;10.87;;
12222;SDS011;6174;49.058;8.524;2024-03-08T21:12:35;11.13;;;9.93;;
12222;SDS011;6174;49.058;8.524;2024-03-08T21:15:04;14.10;;;12.73;;
12222;SDS011;6174;49.058;8.524;2024-03-08T21:17:35;12.90;;;11.60;;
12222;SDS011;6174;49.058;8.524;2024-03-08T21:20:02;12.87;;;11.57;;
12222;SDS011;6174;49.058;8.524;2024-03-08T21:22:33;13.07;;;11.57;;
12222;SDS011;6174;49.058;8.524;2024-03-08T21:25:00;10.87;;;9.87;;
12222;SDS011;6174;49.058;8.524;2024-03-08T21:27:28;10.80;;;9.70;;
12222;SDS011;6174;49.058;8.524;2024-03-08T21:29:55;13.53;;;12.13;;
12222;SDS011;6174;49.058;8.524;2024-03-08T21:32:22;12.40;;;11.10;;
12222;SDS011;6174;49.058;8.524;2024-03-08T21:34:50;14.23;;;12.27;;
12222;SDS011;6174;49.058;8.524;2024-03-08T21:37:17;14.67;;;12.83;;
12222;SDS011;6174;49.058;8.524;2024-03-08T21:39:45;11.93;;;10.73;;
12222;SDS011;6174;49.058;8.524;2024-03-08T21:42:12;10.67;;;9.57;;
12222;SDS011;6174;49.058;8.524;2024-03-08T21:44:39;15.50;;;13.77;;
12222;SDS011;6174;49.058;8.524;2024-03-08T21:47:06;12.13;;;10.93;;
12222;SDS011;6174;49.058;8.524;2024-03-08T21:49:34;14.47;;;12.77;;
12222;SDS011;6174;49.058;8.524;2024-03-08T21:52:04;10.40;;;9.40;;
12222;SDS011;6174;49.058;8.524;2024-03-08T21:54:31;11.17;;;9.90;;
12222;SDS011;6174;49.058;8.524;2024-03-08T21:56:59;10.77;;;9.77;;
12222;SDS011;6174;49.058;8.524;2024-03-08T21:59:27;12.53;;;11.00;;
12222;SDS011;6174;49.058;8.524;2024-03-08T22:01:54;11.40;;;10.20;;
12222;SDS011;6174;49.058;8.524;2024-03-08T22:04:21;10.80;;;9.77;;
12222;SDS011;6174;49.058;8.524;2024-03-08T22:06:48;10.20;;;9.20;;
12222;SDS011;6174;49.058;8.524;2024-03-08T22:09:17;11.10;;;10.00;;
12222;SDS011;6174;49.058;8.524;2024-03-08T22:11:45;11.33;;;10.13;;
12222;SDS011;6174;49.058;8.524;2024-03-08T22:14:12;11.60;;;10.40;;
12222;SDS011;6174;49.058;8.524;2024-03-08T22:16:39;13.83;;;12.43;;
12222;SDS011;6174;49.058;8.524;2024-03-08T22:19:05;13.10;;;10.87;;
12222;SDS011;6174;49.058;8.524;2024-03-08T22:21:34;12.87;;;11.57;;
12222;SDS011;6174;49.058;8.524;2024-03-08T22:24:03;12.67;;;11.37;;
12222;SDS011;6174;49.058;8.524;2024-03-08T22:26:37;12.50;;;11.30;;
12222;SDS011;6174;49.058;8.524;2024-03-08T22:29:08;12.83;;;11.27;;
12222;SDS011;6174;49.058;8.524;2024-03-08T22:31:39;12.07;;;10.87;;
12222;SDS011;6174;49.058;8.524;2024-03-08T22:34:14;13.93;;;12.47;;
12222;SDS011;6174;49.058;8.524;2024-03-08T22:36:54;11.80;;;10.60;;
12222;SDS011;6174;49.058;8.524;2024-03-08T22:39:23;11.20;;;10.00;;
12222;SDS011;6174;49.058;8.524;2024-03-08T22:41:57;11.77;;;10.13;;
12222;SDS011;6174;49.058;8.524;2024-03-08T22:44:33;11.40;;;10.30;;
12222;SDS011;6174;49.058;8.524;2024-03-08T22:47:08;11.03;;;9.77;;
12222;SDS011;6174;49.058;8.524;2024-03-08T22:49:37;10.77;;;9.67;;
12222;SDS011;6174;49.058;8.524;2024-03-08T22:52:08;11.13;;;9.93;;
